createdAt,value
2023-03-04T00:01:31.772Z,36.32
2023-03-04T00:03:58.324Z,35.92
2023-03-04T00:06:24.864Z,35.71
2023-03-04T00:08:51.436Z,35.79
2023-03-04T00:11:17.832Z,35.41
2023-03-04T00:13:44.931Z,36.00
2023-03-04T00:16:11.685Z,35.98
2023-03-04T00:18:38.377Z,35.74
2023-03-04T00:21:05.032Z,36.41
2023-03-04T00:23:31.416Z,37.64
2023-03-04T00:25:57.868Z,36.45
2023-03-04T00:28:24.537Z,36.21
2023-03-04T00:30:51.337Z,36.66
2023-03-04T00:33:17.687Z,35.51
2023-03-04T00:35:45.458Z,35.90
2023-03-04T00:38:11.831Z,35.85
2023-03-04T00:40:38.221Z,35.28
2023-03-04T00:43:05.186Z,38.86
2023-03-04T00:45:31.783Z,48.96
2023-03-04T00:47:58.154Z,49.65
2023-03-04T00:50:25.537Z,42.32
2023-03-04T00:52:51.934Z,38.95
2023-03-04T00:55:18.357Z,37.45
2023-03-04T00:57:45.318Z,37.62
2023-03-04T01:00:11.749Z,36.21
2023-03-04T01:02:40.492Z,36.16
2023-03-04T01:05:07.237Z,36.01
2023-03-04T01:07:34.729Z,36.51
2023-03-04T01:10:04.746Z,34.97
2023-03-04T01:12:31.182Z,36.01
2023-03-04T01:14:57.749Z,35.81
2023-03-04T01:17:24.518Z,35.67
2023-03-04T01:19:51.128Z,35.85
2023-03-04T01:22:17.695Z,35.74
2023-03-04T01:24:47.005Z,34.94
2023-03-04T01:27:13.514Z,35.12
2023-03-04T01:29:44.617Z,35.52
2023-03-04T01:32:12.142Z,35.70
2023-03-04T01:34:38.506Z,35.37
2023-03-04T01:37:04.988Z,36.12
2023-03-04T01:39:31.682Z,35.45
2023-03-04T01:41:58.073Z,35.55
2023-03-04T01:44:27.464Z,34.99
2023-03-04T01:46:54.158Z,35.35
2023-03-04T01:49:20.856Z,34.86
2023-03-04T01:51:47.356Z,34.78
2023-03-04T01:54:13.755Z,34.99
2023-03-04T01:56:40.158Z,34.90
2023-03-04T01:59:06.539Z,35.89
2023-03-04T02:01:35.042Z,34.85
2023-03-04T02:04:01.634Z,35.10
2023-03-04T02:06:28.064Z,35.24
2023-03-04T02:08:56.974Z,34.54
2023-03-04T02:11:25.578Z,34.62
2023-03-04T02:13:52.137Z,34.68
2023-03-04T02:16:18.764Z,34.44
2023-03-04T02:18:45.657Z,34.27
2023-03-04T02:21:12.365Z,33.89
2023-03-04T02:23:38.945Z,34.94
2023-03-04T02:26:05.642Z,35.44
2023-03-04T02:28:32.185Z,34.51
2023-03-04T02:30:58.949Z,35.58
2023-03-04T02:33:25.830Z,35.28
2023-03-04T02:35:52.293Z,35.28
2023-03-04T02:38:27.585Z,34.65
2023-03-04T02:40:53.982Z,34.95
2023-03-04T02:43:20.589Z,35.70
2023-03-04T02:45:47.081Z,36.27
2023-03-04T02:48:18.284Z,35.84
2023-03-04T02:50:45.248Z,36.36
2023-03-04T02:53:11.829Z,36.65
2023-03-04T02:55:38.490Z,36.76
2023-03-04T02:58:05.276Z,36.21
2023-03-04T03:00:31.984Z,36.08
2023-03-04T03:03:01.051Z,35.54
2023-03-04T03:05:27.637Z,35.34
2023-03-04T03:07:54.172Z,36.72
2023-03-04T03:10:20.675Z,36.22
2023-03-04T03:12:47.220Z,36.27
2023-03-04T03:15:14.011Z,35.21
2023-03-04T03:17:40.744Z,35.79
2023-03-04T03:20:07.131Z,36.31
2023-03-04T03:22:34.437Z,36.06
2023-03-04T03:25:01.256Z,35.07
2023-03-04T03:27:27.749Z,36.83
2023-03-04T03:29:54.311Z,36.13
2023-03-04T03:32:20.831Z,37.09
2023-03-04T03:34:47.396Z,36.59
2023-03-04T03:37:14.805Z,36.34
2023-03-04T03:39:41.282Z,35.07
2023-03-04T03:42:09.919Z,36.04
2023-03-04T03:44:36.383Z,34.81
2023-03-04T03:47:02.735Z,34.70
2023-03-04T03:49:29.118Z,34.25
2023-03-04T03:51:55.708Z,33.82
2023-03-04T03:54:22.980Z,34.40
2023-03-04T03:56:49.616Z,33.88
2023-03-04T03:59:16.990Z,34.35
2023-03-04T04:01:44.135Z,33.83
2023-03-04T04:04:14.628Z,32.96
2023-03-04T04:06:41.465Z,33.80
2023-03-04T04:09:08.199Z,33.49
2023-03-04T04:11:35.164Z,34.64
2023-03-04T04:14:06.884Z,34.54
2023-03-04T04:16:33.365Z,34.50
2023-03-04T04:19:01.703Z,33.63
2023-03-04T04:21:28.200Z,34.05
2023-03-04T04:23:54.697Z,33.70
2023-03-04T04:26:21.082Z,33.52
2023-03-04T04:28:47.568Z,34.23
2023-03-04T04:31:14.948Z,34.17
2023-03-04T04:33:41.721Z,33.97
2023-03-04T04:36:08.679Z,33.58
2023-03-04T04:38:35.868Z,33.17
2023-03-04T04:41:02.469Z,32.76
2023-03-04T04:43:30.212Z,32.54
2023-03-04T04:45:57.138Z,32.90
2023-03-04T04:48:23.496Z,33.66
2023-03-04T04:50:50.192Z,33.19
2023-03-04T04:53:17.023Z,33.38
2023-03-04T04:55:47.968Z,32.71
2023-03-04T04:58:16.662Z,32.72
2023-03-04T05:00:44.148Z,33.04
2023-03-04T05:03:18.864Z,32.60
2023-03-04T05:05:48.964Z,32.48
2023-03-04T05:08:15.663Z,32.72
2023-03-04T05:10:42.412Z,32.49
2023-03-04T05:13:09.167Z,32.44
2023-03-04T05:15:35.574Z,32.98
2023-03-04T05:18:01.964Z,32.80
2023-03-04T05:20:28.363Z,32.97
2023-03-04T05:22:56.260Z,32.87
2023-03-04T05:25:24.263Z,33.82
2023-03-04T05:27:50.753Z,33.38
2023-03-04T05:30:25.074Z,32.56
2023-03-04T05:32:51.579Z,33.38
2023-03-04T05:35:19.073Z,33.39
2023-03-04T05:37:45.597Z,33.76
2023-03-04T05:40:16.323Z,34.59
2023-03-04T05:42:43.194Z,34.26
2023-03-04T05:45:09.796Z,34.40
2023-03-04T05:47:37.367Z,35.17
2023-03-04T05:50:06.107Z,35.18
2023-03-04T05:52:33.543Z,34.08
2023-03-04T05:55:00.171Z,33.60
2023-03-04T05:57:26.549Z,35.05
2023-03-04T05:59:52.941Z,34.86
2023-03-04T06:02:19.625Z,34.29
2023-03-04T06:04:49.489Z,34.17
2023-03-04T06:07:19.049Z,33.67
2023-03-04T06:09:45.718Z,33.20
2023-03-04T06:12:12.210Z,33.81
2023-03-04T06:14:38.599Z,34.01
2023-03-04T06:17:05.024Z,34.06
2023-03-04T06:19:33.977Z,33.29
2023-03-04T06:22:00.550Z,34.30
2023-03-04T06:24:27.188Z,32.69
2023-03-04T06:26:53.932Z,33.77
2023-03-04T06:29:23.380Z,34.19
2023-03-04T06:31:49.758Z,32.60
2023-03-04T06:34:18.118Z,32.86
2023-03-04T06:36:46.232Z,33.32
2023-03-04T06:39:12.582Z,32.65
2023-03-04T06:41:38.981Z,32.07
2023-03-04T06:44:06.189Z,33.42
2023-03-04T06:46:32.545Z,33.93
2023-03-04T06:48:59.421Z,34.11
2023-03-04T06:51:25.983Z,33.49
2023-03-04T06:53:52.417Z,33.45
2023-03-04T06:56:18.807Z,33.88
2023-03-04T06:58:45.429Z,33.70
2023-03-04T07:01:11.839Z,32.99
2023-03-04T07:03:38.445Z,33.45
2023-03-04T07:06:04.821Z,32.89
2023-03-04T07:08:31.443Z,32.50
2023-03-04T07:10:57.822Z,32.58
2023-03-04T07:13:24.275Z,32.92
2023-03-04T07:15:51.757Z,33.22
2023-03-04T07:18:18.201Z,33.81
2023-03-04T07:20:44.614Z,33.40
2023-03-04T07:23:11.084Z,32.91
2023-03-04T07:25:37.445Z,34.18
2023-03-04T07:28:03.892Z,35.11
2023-03-04T07:30:30.495Z,34.96
2023-03-04T07:32:57.177Z,34.22
2023-03-04T07:35:24.621Z,37.36
2023-03-04T07:37:51.796Z,36.93
2023-03-04T07:40:18.817Z,36.45
2023-03-04T07:42:47.266Z,36.60
2023-03-04T07:45:13.773Z,35.09
2023-03-04T07:47:41.650Z,35.26
2023-03-04T07:50:10.109Z,36.10
2023-03-04T07:52:36.571Z,36.56
2023-03-04T07:55:03.036Z,36.14
2023-03-04T07:57:29.517Z,37.19
2023-03-04T07:59:56.056Z,37.24
2023-03-04T08:02:22.461Z,37.29
2023-03-04T08:04:48.840Z,37.50
2023-03-04T08:07:15.301Z,38.41
2023-03-04T08:09:43.991Z,37.47
2023-03-04T08:12:10.863Z,39.25
2023-03-04T08:14:39.886Z,38.65
2023-03-04T08:17:06.274Z,38.68
2023-03-04T08:19:33.747Z,39.29
2023-03-04T08:22:01.630Z,39.94
2023-03-04T08:24:28.575Z,38.87
2023-03-04T08:26:55.232Z,39.50
2023-03-04T08:29:21.584Z,40.43
2023-03-04T08:31:49.061Z,40.86
2023-03-04T08:34:15.993Z,40.06
2023-03-04T08:36:42.798Z,39.47
2023-03-04T08:39:09.452Z,39.94
2023-03-04T08:41:36.299Z,39.58
2023-03-04T08:44:05.162Z,39.67
2023-03-04T08:46:31.669Z,40.00
2023-03-04T08:49:00.382Z,40.43
2023-03-04T08:51:29.117Z,41.24
2023-03-04T08:53:55.978Z,40.88
2023-03-04T08:56:23.096Z,40.58
2023-03-04T08:58:49.549Z,41.14
2023-03-04T09:01:17.052Z,41.69
2023-03-04T09:03:45.941Z,42.49
2023-03-04T09:06:12.446Z,43.53
2023-03-04T09:08:39.036Z,45.18
2023-03-04T09:11:05.438Z,45.62
2023-03-04T09:13:32.105Z,45.24
2023-03-04T09:15:59.012Z,46.64
2023-03-04T09:18:25.444Z,48.92
2023-03-04T09:20:51.955Z,51.34
2023-03-04T09:23:18.525Z,51.51
2023-03-04T09:25:45.277Z,52.68
2023-03-04T09:28:11.744Z,51.54
2023-03-04T09:30:38.208Z,50.29
2023-03-04T09:33:05.043Z,48.30
2023-03-04T09:35:31.680Z,47.43
2023-03-04T09:37:58.056Z,46.85
2023-03-04T09:40:24.849Z,46.13
2023-03-04T09:42:51.383Z,45.88
2023-03-04T09:45:17.905Z,43.96
2023-03-04T09:47:44.477Z,43.72
2023-03-04T09:50:11.253Z,42.56
2023-03-04T09:52:37.708Z,42.71
2023-03-04T09:55:05.076Z,42.19
2023-03-04T09:57:34.078Z,41.85
2023-03-04T10:00:01.706Z,39.85
2023-03-04T10:02:28.456Z,40.91
2023-03-04T10:04:55.142Z,39.89
2023-03-04T10:07:23.183Z,40.35
2023-03-04T10:09:49.534Z,38.92
2023-03-04T10:12:15.917Z,37.94
2023-03-04T10:14:42.419Z,39.26
2023-03-04T10:17:08.993Z,39.40
2023-03-04T10:19:35.416Z,39.57
2023-03-04T10:22:01.853Z,39.99
2023-03-04T10:24:28.348Z,40.31
2023-03-04T10:26:54.936Z,40.17
2023-03-04T10:29:21.380Z,38.28
2023-03-04T10:31:48.172Z,37.88
2023-03-04T10:34:15.124Z,36.71
2023-03-04T10:36:41.704Z,35.22
2023-03-04T10:39:08.542Z,32.78
2023-03-04T10:41:35.377Z,32.56
2023-03-04T10:44:01.950Z,32.31
2023-03-04T10:46:28.420Z,32.26
2023-03-04T10:48:55.714Z,31.75
2023-03-04T10:51:24.751Z,32.12
2023-03-04T10:53:51.134Z,33.23
2023-03-04T10:56:17.816Z,30.81
2023-03-04T10:58:44.578Z,31.60
2023-03-04T11:01:11.184Z,30.50
2023-03-04T11:03:38.304Z,30.76
2023-03-04T11:06:04.966Z,30.51
2023-03-04T11:08:31.598Z,31.52
2023-03-04T11:10:59.016Z,31.22
2023-03-04T11:13:25.452Z,30.74
2023-03-04T11:15:51.826Z,29.60
2023-03-04T11:18:19.287Z,28.82
2023-03-04T11:20:46.018Z,29.50
2023-03-04T11:23:12.453Z,30.90
2023-03-04T11:25:38.843Z,29.96
2023-03-04T11:28:05.237Z,28.34
2023-03-04T11:30:31.648Z,28.96
2023-03-04T11:32:58.128Z,28.20
2023-03-04T11:35:24.623Z,27.99
2023-03-04T11:37:51.098Z,28.21
2023-03-04T11:40:17.978Z,29.01
2023-03-04T11:42:44.422Z,28.68
2023-03-04T11:45:26.163Z,27.22
2023-03-04T11:47:55.200Z,27.84
2023-03-04T11:50:21.587Z,26.70
2023-03-04T11:52:48.206Z,26.01
2023-03-04T11:55:14.600Z,26.51
2023-03-04T11:57:41.090Z,25.12
2023-03-04T12:00:10.394Z,24.46
2023-03-04T12:02:36.805Z,21.95
2023-03-04T12:05:04.290Z,22.04
2023-03-04T12:07:30.650Z,23.82
2023-03-04T12:09:57.070Z,26.33
2023-03-04T12:12:23.422Z,25.07
2023-03-04T12:14:50.238Z,23.31
2023-03-04T12:17:17.111Z,22.37
2023-03-04T12:19:44.593Z,21.33
2023-03-04T12:22:10.978Z,22.58
2023-03-04T12:24:41.233Z,23.07
2023-03-04T12:27:07.612Z,23.15
2023-03-04T12:29:34.008Z,22.77
2023-03-04T12:32:00.444Z,22.82
2023-03-04T12:34:26.805Z,20.79
2023-03-04T12:36:53.498Z,20.10
2023-03-04T12:39:19.861Z,21.87
2023-03-04T12:41:46.498Z,22.55
2023-03-04T12:44:13.069Z,23.63
2023-03-04T12:46:39.950Z,23.50
2023-03-04T12:49:06.634Z,22.32
2023-03-04T12:51:33.003Z,22.86
2023-03-04T12:53:59.381Z,22.27
2023-03-04T12:56:25.769Z,23.10
2023-03-04T12:58:52.113Z,22.06
2023-03-04T13:01:18.487Z,21.87
2023-03-04T13:03:44.899Z,21.53
2023-03-04T13:06:11.249Z,21.62
2023-03-04T13:08:37.631Z,21.13
2023-03-04T13:11:04.026Z,21.96
2023-03-04T13:13:30.397Z,21.85
2023-03-04T13:15:56.965Z,22.34
2023-03-04T13:18:23.371Z,22.44
2023-03-04T13:20:49.719Z,22.27
2023-03-04T13:23:16.043Z,21.65
2023-03-04T13:25:42.438Z,21.51
2023-03-04T13:28:08.802Z,19.92
2023-03-04T13:30:35.148Z,21.13
2023-03-04T13:33:01.532Z,20.81
2023-03-04T13:35:27.949Z,20.53
2023-03-04T13:37:54.356Z,20.40
2023-03-04T13:40:20.732Z,18.50
2023-03-04T13:42:47.062Z,19.67
2023-03-04T13:45:13.450Z,21.76
2023-03-04T13:47:39.867Z,24.22
2023-03-04T13:50:06.244Z,24.00
2023-03-04T13:52:32.629Z,24.23
2023-03-04T13:54:59.362Z,24.38
2023-03-04T13:57:25.842Z,24.52
2023-03-04T13:59:52.481Z,23.17
2023-03-04T14:02:19.036Z,22.29
2023-03-04T14:04:47.691Z,21.75
2023-03-04T14:07:14.069Z,22.87
2023-03-04T14:09:40.478Z,22.78
2023-03-04T14:12:08.987Z,39.54
2023-03-04T14:14:37.558Z,22.47
2023-03-04T14:17:04.152Z,22.07
2023-03-04T14:19:30.554Z,22.47
2023-03-04T14:21:57.238Z,21.85
2023-03-04T14:24:23.648Z,20.95
2023-03-04T14:26:52.427Z,21.32
2023-03-04T14:29:18.996Z,20.38
2023-03-04T14:31:45.395Z,20.01
2023-03-04T14:34:11.896Z,20.20
2023-03-04T14:36:38.632Z,20.78
2023-03-04T14:39:05.271Z,20.81
2023-03-04T14:41:32.819Z,20.98
2023-03-04T14:43:59.194Z,29.55
2023-03-04T14:46:25.990Z,42.72
2023-03-04T14:48:52.388Z,26.23
2023-03-04T14:51:19.072Z,27.73
2023-03-04T14:53:45.549Z,42.71
2023-03-04T14:56:14.193Z,25.04
2023-03-04T14:58:43.832Z,23.21
2023-03-04T15:01:10.668Z,23.00
2023-03-04T15:03:38.175Z,23.19
2023-03-04T15:06:06.377Z,22.88
2023-03-04T15:08:34.202Z,24.07
2023-03-04T15:11:00.991Z,24.63
2023-03-04T15:13:28.167Z,24.89
2023-03-04T15:15:54.677Z,24.47
2023-03-04T15:18:22.552Z,25.72
2023-03-04T15:20:48.980Z,25.78
2023-03-04T15:23:15.560Z,25.01
2023-03-04T15:25:41.920Z,25.39
2023-03-04T15:28:08.265Z,25.91
2023-03-04T15:30:34.738Z,24.98
2023-03-04T15:33:01.757Z,26.48
2023-03-04T15:35:30.316Z,26.43
2023-03-04T15:37:56.710Z,26.10
2023-03-04T15:40:27.339Z,27.00
2023-03-04T15:42:53.837Z,27.47
2023-03-04T15:45:20.221Z,26.09
2023-03-04T15:47:46.788Z,28.91
2023-03-04T15:50:13.169Z,30.56
2023-03-04T15:52:39.601Z,29.73
2023-03-04T15:55:06.077Z,29.82
2023-03-04T15:57:32.809Z,27.65
2023-03-04T15:59:59.435Z,27.51
2023-03-04T16:02:27.054Z,27.83
2023-03-04T16:04:54.563Z,28.95
2023-03-04T16:07:21.130Z,27.79
2023-03-04T16:09:47.529Z,28.26
2023-03-04T16:12:13.910Z,28.53
2023-03-04T16:14:41.340Z,29.06
2023-03-04T16:17:08.244Z,29.34
2023-03-04T16:19:34.632Z,29.66
2023-03-04T16:22:01.039Z,29.81
2023-03-04T16:24:29.666Z,30.50
2023-03-04T16:27:00.125Z,29.82
2023-03-04T16:29:28.611Z,30.30
2023-03-04T16:31:55.079Z,28.95
2023-03-04T16:34:21.546Z,29.34
2023-03-04T16:36:48.175Z,28.55
2023-03-04T16:39:14.583Z,28.83
2023-03-04T16:41:41.034Z,29.57
2023-03-04T16:44:07.382Z,30.19
2023-03-04T16:46:33.792Z,29.63
2023-03-04T16:49:00.201Z,29.72
2023-03-04T16:51:27.655Z,30.13
2023-03-04T16:53:54.029Z,30.36
2023-03-04T16:56:20.447Z,29.72
2023-03-04T16:58:49.442Z,29.76
2023-03-04T17:01:15.825Z,29.58
2023-03-04T17:03:42.307Z,29.38
2023-03-04T17:06:08.705Z,28.87
2023-03-04T17:08:35.739Z,29.69
2023-03-04T17:11:02.178Z,27.53
2023-03-04T17:13:28.528Z,27.91
2023-03-04T17:15:55.117Z,29.27
2023-03-04T17:18:21.538Z,28.48
2023-03-04T17:20:48.434Z,28.57
2023-03-04T17:23:14.895Z,29.09
2023-03-04T17:25:41.429Z,28.91
2023-03-04T17:28:07.877Z,28.93
2023-03-04T17:30:37.270Z,29.40
2023-03-04T17:33:03.922Z,28.00
2023-03-04T17:35:30.537Z,29.58
2023-03-04T17:37:57.028Z,30.00
2023-03-04T17:40:23.428Z,30.36
2023-03-04T17:42:50.066Z,30.18
2023-03-04T17:45:16.452Z,30.88
2023-03-04T17:47:42.949Z,31.35
2023-03-04T17:50:09.532Z,31.34
2023-03-04T17:52:36.010Z,32.06
2023-03-04T17:55:03.046Z,31.72
2023-03-04T17:57:32.710Z,32.19
2023-03-04T18:00:01.320Z,32.87
2023-03-04T18:02:28.113Z,33.51
2023-03-04T18:04:56.182Z,34.40
2023-03-04T18:07:22.991Z,34.57
2023-03-04T18:09:49.371Z,33.71
2023-03-04T18:12:15.980Z,32.86
2023-03-04T18:14:42.338Z,33.11
2023-03-04T18:17:09.209Z,32.37
2023-03-04T18:19:36.265Z,33.01
2023-03-04T18:22:03.008Z,32.97
2023-03-04T18:24:29.869Z,34.21
2023-03-04T18:26:56.491Z,34.05
2023-03-04T18:29:22.929Z,33.89
2023-03-04T18:31:49.757Z,35.64
2023-03-04T18:34:24.105Z,36.05
2023-03-04T18:36:53.054Z,35.88
2023-03-04T18:39:19.452Z,36.92
2023-03-04T18:41:46.106Z,37.51
2023-03-04T18:44:13.956Z,37.48
2023-03-04T18:46:40.360Z,38.53
2023-03-04T18:49:07.751Z,38.43
2023-03-04T18:51:35.072Z,39.83
2023-03-04T18:54:01.517Z,39.32
2023-03-04T18:56:27.966Z,38.97
2023-03-04T18:58:55.370Z,37.59
2023-03-04T19:01:22.448Z,37.83
2023-03-04T19:03:48.856Z,37.00
2023-03-04T19:06:15.541Z,37.81
2023-03-04T19:08:42.565Z,38.01
2023-03-04T19:11:09.064Z,38.51
2023-03-04T19:13:35.488Z,37.78
2023-03-04T19:16:03.308Z,38.40
2023-03-04T19:18:29.890Z,37.78
2023-03-04T19:21:05.320Z,38.19
2023-03-04T19:23:31.965Z,37.67
2023-03-04T19:25:58.593Z,36.39
2023-03-04T19:28:32.122Z,35.77
2023-03-04T19:31:00.254Z,36.88
2023-03-04T19:33:27.101Z,37.80
2023-03-04T19:35:53.933Z,37.32
2023-03-04T19:38:20.478Z,36.76
2023-03-04T19:40:47.879Z,37.11
2023-03-04T19:43:14.517Z,37.63
2023-03-04T19:45:41.134Z,37.01
2023-03-04T19:48:08.615Z,38.62
2023-03-04T19:50:34.955Z,41.67
2023-03-04T19:53:04.059Z,41.16
2023-03-04T19:55:30.624Z,40.73
2023-03-04T19:57:57.041Z,41.14
2023-03-04T20:00:24.191Z,39.78
2023-03-04T20:02:50.731Z,38.98
2023-03-04T20:05:17.130Z,37.10
2023-03-04T20:07:43.545Z,36.94
2023-03-04T20:10:09.967Z,36.46
2023-03-04T20:12:36.323Z,34.46
2023-03-04T20:15:02.912Z,37.63
2023-03-04T20:17:30.115Z,41.96
2023-03-04T20:19:56.480Z,41.49
2023-03-04T20:22:23.889Z,41.40
2023-03-04T20:24:50.739Z,41.02
2023-03-04T20:27:17.089Z,40.85
2023-03-04T20:29:45.341Z,39.38
2023-03-04T20:32:13.109Z,40.27
2023-03-04T20:34:39.747Z,38.82
2023-03-04T20:37:06.133Z,37.44
2023-03-04T20:39:32.489Z,35.95
2023-03-04T20:41:58.842Z,36.26
2023-03-04T20:44:26.690Z,35.52
2023-03-04T20:46:53.044Z,34.45
2023-03-04T20:49:19.457Z,34.37
2023-03-04T20:51:45.915Z,34.47
2023-03-04T20:54:12.385Z,34.83
2023-03-04T20:56:38.811Z,35.65
2023-03-04T20:59:05.464Z,34.78
2023-03-04T21:01:31.862Z,34.38
2023-03-04T21:03:58.252Z,33.34
2023-03-04T21:06:24.778Z,33.32
2023-03-04T21:08:52.164Z,33.42
2023-03-04T21:11:18.552Z,35.18
2023-03-04T21:13:44.955Z,33.71
2023-03-04T21:16:13.715Z,34.74
2023-03-04T21:18:41.299Z,34.58
2023-03-04T21:21:08.077Z,34.93
2023-03-04T21:23:35.737Z,35.10
2023-03-04T21:26:04.238Z,34.65
2023-03-04T21:28:30.690Z,34.17
2023-03-04T21:30:57.147Z,33.73
2023-03-04T21:33:24.127Z,33.84
2023-03-04T21:35:50.797Z,34.23
2023-03-04T21:38:19.387Z,34.51
2023-03-04T21:40:47.179Z,35.47
2023-03-04T21:43:14.363Z,36.12
2023-03-04T21:45:41.010Z,37.50
2023-03-04T21:48:07.571Z,37.96
2023-03-04T21:50:34.394Z,36.15
2023-03-04T21:53:01.722Z,35.83
2023-03-04T21:55:28.081Z,34.56
2023-03-04T21:57:54.456Z,34.49
2023-03-04T22:00:21.117Z,33.91
2023-03-04T22:02:47.541Z,32.86
2023-03-04T22:05:13.930Z,33.31
2023-03-04T22:07:40.411Z,31.83
2023-03-04T22:10:07.376Z,33.38
2023-03-04T22:12:34.528Z,33.34
2023-03-04T22:15:00.951Z,32.69
2023-03-04T22:17:27.410Z,31.76
2023-03-04T22:19:55.978Z,31.75
2023-03-04T22:22:22.856Z,31.71
2023-03-04T22:24:49.247Z,31.07
2023-03-04T22:27:16.630Z,31.85
2023-03-04T22:29:43.005Z,31.61
2023-03-04T22:32:09.998Z,31.45
2023-03-04T22:34:36.405Z,31.01
2023-03-04T22:37:02.738Z,31.63
2023-03-04T22:39:29.137Z,30.97
2023-03-04T22:41:56.479Z,32.69
2023-03-04T22:44:25.804Z,31.84
2023-03-04T22:46:52.238Z,32.18
2023-03-04T22:49:18.629Z,31.66
2023-03-04T22:51:46.192Z,31.61
2023-03-04T22:54:14.776Z,31.75
2023-03-04T22:56:41.796Z,30.23
2023-03-04T22:59:08.279Z,32.09
2023-03-04T23:01:34.894Z,32.99
2023-03-04T23:04:01.298Z,32.52
2023-03-04T23:06:27.953Z,31.80
2023-03-04T23:08:54.418Z,31.98
2023-03-04T23:11:20.883Z,31.58
2023-03-04T23:13:50.204Z,31.06
2023-03-04T23:16:16.864Z,32.37
2023-03-04T23:18:43.277Z,31.04
2023-03-04T23:21:11.666Z,31.60
2023-03-04T23:23:38.753Z,31.30
2023-03-04T23:26:05.183Z,30.81
2023-03-04T23:28:33.870Z,31.36
2023-03-04T23:31:04.957Z,31.22
2023-03-04T23:33:33.239Z,31.76
2023-03-04T23:36:03.111Z,31.58
2023-03-04T23:38:29.820Z,31.42
2023-03-04T23:40:56.202Z,31.15
2023-03-04T23:43:24.813Z,31.98
2023-03-04T23:45:51.453Z,31.81
2023-03-04T23:48:18.268Z,31.56
2023-03-04T23:50:46.099Z,31.55
2023-03-04T23:53:12.897Z,30.39
2023-03-04T23:55:39.472Z,31.09
2023-03-04T23:58:06.941Z,31.21
